Time;durP1;ratioP1;P1;durP2;ratioP2;P2;SDS_P1;SDS_P2;PMS_P1;PMS_P2;Temp;Humidity;BMP_temperature;BMP_pressure;BME280_temperature;BME280_humidity;BME280_pressure;Samples;Min_cycle;Max_cycle;Signal;HPM_P1;HPM_P2
2023/02/26 16:17:13;;;;;;;6.05;2.20;;;5.90;72.30;;;;;;5109074;27;20326;-67
2023/02/26 16:19:42;;;;;;;5.30;2.58;;;6.00;72.40;;;;;;5109438;28;20099;-66
2023/02/26 16:22:31;;;;;;;2.83;1.50;;;6.20;72.90;;;;;;5108682;28;20476;-67
2023/02/26 16:25:14;;;;;;;3.97;2.05;;;6.40;71.40;;;;;;5110421;28;20088;-73
2023/02/26 16:27:41;;;;;;;4.00;1.67;;;6.60;71.20;;;;;;5129160;27;20030;-71
2023/02/26 16:30:17;;;;;;;2.35;1.70;;;6.80;69.90;;;;;;5122736;28;20038;-70
2023/02/26 16:32:44;;;;;;;6.28;1.65;;;6.90;69.00;;;;;;5109051;28;20028;-73
2023/02/26 16:35:16;;;;;;;6.28;2.00;;;7.00;68.40;;;;;;5103523;28;20054;-70
2023/02/26 16:37:48;;;;;;;5.72;2.50;;;7.00;66.90;;;;;;5105447;28;20412;-71
2023/02/26 16:40:25;;;;;;;7.07;2.60;;;7.00;66.30;;;;;;5107250;28;20020;-67
2023/02/26 16:42:53;;;;;;;8.20;3.20;;;6.90;67.70;;;;;;5107742;28;20492;-70
2023/02/26 16:45:34;;;;;;;7.22;3.47;;;6.90;67.10;;;;;;5106652;28;20028;-69
2023/02/26 16:48:02;;;;;;;3.38;2.15;;;6.70;68.40;;;;;;5107654;28;20087;-66
2023/02/26 16:50:30;;;;;;;6.50;3.10;;;6.40;69.20;;;;;;5104667;28;20586;-71
2023/02/26 16:53:04;;;;;;;9.77;4.00;;;6.10;69.70;;;;;;5106892;28;20127;-68
2023/02/26 16:55:32;;;;;;;6.93;3.33;;;5.80;70.10;;;;;;5110972;28;20583;-68
2023/02/26 16:58:04;;;;;;;3.13;2.05;;;5.50;71.30;;;;;;5111962;28;20034;-67
2023/02/26 17:00:31;;;;;;;1.73;1.35;;;5.30;72.20;;;;;;5107497;28;20019;-67
2023/02/26 17:03:08;;;;;;;1.58;1.35;;;5.10;72.50;;;;;;5105629;28;20388;-72
2023/02/26 17:05:38;;;;;;;3.63;1.65;;;5.00;72.30;;;;;;5106150;28;20051;-72
2023/02/26 17:08:18;;;;;;;1.88;1.38;;;4.80;72.40;;;;;;5105433;28;20065;-71
2023/02/26 17:10:48;;;;;;;2.60;1.57;;;4.80;72.90;;;;;;5105339;28;20487;-72
2023/02/26 17:13:23;;;;;;;1.45;1.00;;;4.70;73.00;;;;;;5104414;28;20031;-67
2023/02/26 17:15:50;;;;;;;2.03;1.30;;;4.70;73.50;;;;;;5104634;28;20095;-68
2023/02/26 17:18:16;;;;;;;1.80;1.13;;;4.60;74.10;;;;;;5106480;28;20027;-71
2023/02/26 17:20:43;;;;;;;1.10;1.00;;;4.60;74.80;;;;;;5107417;28;20024;-72
2023/02/26 17:23:13;;;;;;;2.65;1.38;;;4.50;75.30;;;;;;5117777;28;20023;-68
2023/02/26 17:25:41;;;;;;;2.58;1.00;;;4.40;75.70;;;;;;5125982;28;20463;-69
2023/02/26 17:28:11;;;;;;;3.42;1.35;;;4.40;76.30;;;;;;5115777;28;20023;-72
2023/02/26 17:30:37;;;;;;;3.35;1.40;;;4.30;76.50;;;;;;5110321;28;20027;-68
2023/02/26 17:33:03;;;;;;;5.45;2.28;;;4.20;76.70;;;;;;5092741;28;20020;-69
2023/02/26 17:35:30;;;;;;;5.18;1.83;;;4.20;77.10;;;;;;5093500;28;20035;-68
2023/02/26 17:37:56;;;;;;;3.67;1.40;;;4.10;77.60;;;;;;5091890;28;20463;-69
2023/02/26 17:40:25;;;;;;;3.67;2.17;;;4.10;77.90;;;;;;5093043;28;20100;-71
2023/02/26 17:42:51;;;;;;;4.30;1.85;;;4.10;78.50;;;;;;5093441;28;20028;-71
2023/02/26 17:45:18;;;;;;;4.82;1.40;;;4.10;78.90;;;;;;5092382;28;20116;-68
2023/02/26 17:47:46;;;;;;;2.83;1.23;;;4.10;79.40;;;;;;5104873;28;20032;-68
2023/02/26 17:50:59;;;;;;;3.20;1.55;;;4.00;80.10;;;;;;5111451;28;20495;-67
2023/02/26 17:53:32;;;;;;;2.13;1.33;;;4.00;80.70;;;;;;5078187;28;20028;-69
2023/02/26 17:55:58;;;;;;;3.53;1.83;;;4.00;81.60;;;;;;5112890;28;20088;-67
2023/02/26 17:58:33;;;;;;;4.97;1.40;;;3.90;82.40;;;;;;5112378;28;20099;-71
2023/02/26 18:00:59;;;;;;;3.92;1.40;;;3.80;83.00;;;;;;5111572;28;20023;-68
2023/02/26 18:03:25;;;;;;;4.72;1.20;;;3.80;83.70;;;;;;5092722;28;20373;-69
2023/02/26 18:05:53;;;;;;;2.33;1.40;;;3.70;84.40;;;;;;5092812;28;20476;-68
2023/02/26 18:08:27;;;;;;;4.32;1.58;;;3.60;85.00;;;;;;5092087;28;20114;-68
2023/02/26 18:10:53;;;;;;;3.40;1.30;;;3.50;85.60;;;;;;5094967;28;20023;-68
2023/02/26 18:13:20;;;;;;;4.68;1.60;;;3.50;86.10;;;;;;5110927;28;20403;-70
2023/02/26 18:15:46;;;;;;;5.82;2.40;;;3.40;86.70;;;;;;5112455;28;20043;-66
2023/02/26 18:18:13;;;;;;;5.35;1.60;;;3.40;87.40;;;;;;5112903;28;20085;-67
2023/02/26 18:20:39;;;;;;;4.40;1.27;;;3.30;88.00;;;;;;5112740;28;20027;-67
2023/02/26 18:23:11;;;;;;;2.60;1.45;;;3.20;88.80;;;;;;5110457;28;20015;-67
2023/02/26 18:25:38;;;;;;;5.80;1.10;;;3.20;89.40;;;;;;5092485;28;20016;-67
2023/02/26 18:28:04;;;;;;;3.42;1.25;;;3.10;89.90;;;;;;5091150;28;20027;-67
2023/02/26 18:30:37;;;;;;;2.95;1.20;;;3.10;90.10;;;;;;5092771;28;20035;-66
2023/02/26 18:33:02;;;;;;;5.32;1.50;;;3.00;90.40;;;;;;5091381;28;20020;-67
2023/02/26 18:35:29;;;;;;;4.18;1.58;;;3.00;90.60;;;;;;5092539;28;20031;-67
2023/02/26 18:37:55;;;;;;;4.80;1.63;;;2.90;90.80;;;;;;5110864;28;20047;-67
2023/02/26 18:40:24;;;;;;;3.15;1.50;;;2.90;91.10;;;;;;5111003;28;20024;-67
2023/02/26 18:42:50;;;;;;;4.78;1.85;;;2.80;91.40;;;;;;5110606;28;20023;-67
2023/02/26 18:45:17;;;;;;;3.40;1.48;;;2.80;91.60;;;;;;5110311;28;20023;-67
2023/02/26 18:47:44;;;;;;;4.35;1.63;;;2.70;91.90;;;;;;5111830;28;20031;-67
2023/02/26 18:50:13;;;;;;;6.78;1.75;;;2.70;92.20;;;;;;5103930;28;20081;-67
2023/02/26 18:52:38;;;;;;;4.20;1.63;;;2.70;92.50;;;;;;5092155;28;20028;-67
2023/02/26 18:55:05;;;;;;;3.15;1.50;;;2.60;93.00;;;;;;5095314;28;20036;-67
2023/02/26 18:57:31;;;;;;;3.25;1.63;;;2.60;93.10;;;;;;5091077;28;20078;-67
2023/02/26 18:59:58;;;;;;;3.38;1.40;;;2.60;93.30;;;;;;5090424;28;20111;-67
2023/02/26 19:02:24;;;;;;;3.97;1.75;;;2.50;93.50;;;;;;5093219;28;20476;-67
2023/02/26 19:04:50;;;;;;;4.00;1.75;;;2.50;93.80;;;;;;5091309;28;20020;-67
2023/02/26 19:07:16;;;;;;;4.75;1.63;;;2.40;94.10;;;;;;5091500;28;20168;-67
2023/02/26 19:09:41;;;;;;;4.93;1.30;;;2.40;94.40;;;;;;5091363;28;20357;-67
2023/02/26 19:12:07;;;;;;;2.50;1.30;;;2.40;94.70;;;;;;5089939;28;20024;-67
2023/02/26 19:14:33;;;;;;;4.88;1.73;;;2.40;95.00;;;;;;5089653;28;20016;-66
2023/02/26 19:16:59;;;;;;;1.40;1.25;;;2.40;95.20;;;;;;5090304;28;20047;-66
2023/02/26 19:19:25;;;;;;;2.10;1.40;;;2.30;95.30;;;;;;5107827;28;20069;-67
2023/02/26 19:21:52;;;;;;;2.72;1.38;;;2.30;95.40;;;;;;5092677;28;20388;-66
2023/02/26 19:24:18;;;;;;;6.60;2.30;;;2.30;95.70;;;;;;5104656;28;20618;-66
2023/02/26 19:26:46;;;;;;;5.30;1.80;;;2.20;95.90;;;;;;5102529;28;20511;-66
2023/02/26 19:29:21;;;;;;;2.47;1.58;;;2.20;96.10;;;;;;5107105;28;20472;-66
2023/02/26 19:31:47;;;;;;;5.32;1.63;;;2.20;96.30;;;;;;5091298;28;20043;-67
2023/02/26 19:34:16;;;;;;;3.90;1.40;;;2.10;96.40;;;;;;5111504;28;20062;-66
2023/02/26 19:36:46;;;;;;;1.83;1.52;;;2.20;96.50;;;;;;5092738;28;20377;-66
2023/02/26 19:39:14;;;;;;;2.38;1.30;;;2.20;96.50;;;;;;5089163;28;20567;-66
2023/02/26 19:41:39;;;;;;;8.65;1.92;;;2.20;96.60;;;;;;5089962;28;20036;-66
2023/02/26 19:44:05;;;;;;;5.57;1.60;;;2.10;96.70;;;;;;5090833;28;20016;-66
2023/02/26 19:46:31;;;;;;;4.07;1.90;;;2.10;97.00;;;;;;5088602;28;20509;-67
2023/02/26 19:48:56;;;;;;;2.88;1.60;;;2.10;96.90;;;;;;5108573;28;20059;-66
2023/02/26 19:51:22;;;;;;;3.45;1.40;;;2.10;97.10;;;;;;5110921;28;20055;-66
2023/02/26 19:53:52;;;;;;;2.05;1.35;;;2.10;97.30;;;;;;5109994;28;20016;-66
2023/02/26 19:56:18;;;;;;;6.25;1.70;;;2.00;97.40;;;;;;5106827;28;20098;-66
2023/02/26 19:58:44;;;;;;;3.15;1.35;;;2.00;97.50;;;;;;5089109;28;20066;-66
2023/02/26 20:01:09;;;;;;;2.65;1.45;;;2.00;97.60;;;;;;5089167;28;20028;-66
2023/02/26 20:03:38;;;;;;;4.57;1.63;;;2.00;97.50;;;;;;5090543;28;20030;-67
2023/02/26 20:06:07;;;;;;;2.60;1.38;;;2.00;97.70;;;;;;5090101;28;20070;-67
2023/02/26 20:08:32;;;;;;;3.55;1.83;;;2.00;97.70;;;;;;5089687;28;20026;-67
2023/02/26 20:10:58;;;;;;;3.63;1.25;;;2.00;97.80;;;;;;5089754;28;20469;-68
2023/02/26 20:13:28;;;;;;;2.17;1.30;;;2.00;98.00;;;;;;5089352;28;20468;-69
2023/02/26 20:15:55;;;;;;;2.67;1.40;;;2.00;98.10;;;;;;5089029;28;20043;-67
2023/02/26 20:18:28;;;;;;;2.90;1.30;;;2.00;98.20;;;;;;5090344;28;20016;-68
2023/02/26 20:20:54;;;;;;;1.85;1.33;;;2.00;98.30;;;;;;5089933;28;20094;-68
2023/02/26 20:23:20;;;;;;;2.30;1.50;;;2.00;98.10;;;;;;5088301;28;20417;-66
2023/02/26 20:25:49;;;;;;;3.85;1.40;;;2.00;98.40;;;;;;5070259;28;20040;-67
2023/02/26 20:28:16;;;;;;;3.25;1.80;;;2.00;98.50;;;;;;5069433;28;20048;-66
2023/02/26 20:30:42;;;;;;;4.70;1.80;;;2.00;98.70;;;;;;5071903;28;20055;-67
2023/02/26 20:33:08;;;;;;;4.38;1.70;;;2.00;98.70;;;;;;5085719;28;20155;-66
